sensor_id;sensor_type;location;lat;lon;timestamp;temperature;humidity
1359;DHT22;673;48.098;14.422;2022-09-09T00:01:01;11.30;99.90
1359;DHT22;673;48.098;14.422;2022-09-09T00:03:37;11.30;99.90
1359;DHT22;673;48.098;14.422;2022-09-09T00:06:12;11.30;99.90
1359;DHT22;673;48.098;14.422;2022-09-09T00:08:51;11.20;99.90
1359;DHT22;673;48.098;14.422;2022-09-09T00:11:26;11.20;99.90
1359;DHT22;673;48.098;14.422;2022-09-09T00:13:57;11.20;99.90
1359;DHT22;673;48.098;14.422;2022-09-09T00:16:28;11.20;99.90
1359;DHT22;673;48.098;14.422;2022-09-09T00:19:02;11.30;99.90
1359;DHT22;673;48.098;14.422;2022-09-09T00:21:34;11.20;99.90
1359;DHT22;673;48.098;14.422;2022-09-09T00:24:10;11.30;99.90
1359;DHT22;673;48.098;14.422;2022-09-09T00:26:42;11.30;99.90
1359;DHT22;673;48.098;14.422;2022-09-09T00:29:14;11.30;99.90
1359;DHT22;673;48.098;14.422;2022-09-09T00:31:48;11.30;99.90
1359;DHT22;673;48.098;14.422;2022-09-09T00:34:18;11.20;99.90
1359;DHT22;673;48.098;14.422;2022-09-09T00:36:49;11.20;99.90
1359;DHT22;673;48.098;14.422;2022-09-09T00:39:27;11.20;99.90
1359;DHT22;673;48.098;14.422;2022-09-09T00:42:05;11.10;99.90
1359;DHT22;673;48.098;14.422;2022-09-09T00:44:37;11.10;99.90
1359;DHT22;673;48.098;14.422;2022-09-09T00:47:17;11.10;99.90
1359;DHT22;673;48.098;14.422;2022-09-09T00:49:54;11.10;99.90
1359;DHT22;673;48.098;14.422;2022-09-09T00:52:34;11.10;99.90
1359;DHT22;673;48.098;14.422;2022-09-09T00:55:09;11.10;99.90
1359;DHT22;673;48.098;14.422;2022-09-09T00:57:41;11.10;99.90
1359;DHT22;673;48.098;14.422;2022-09-09T01:00:22;11.00;99.90
1359;DHT22;673;48.098;14.422;2022-09-09T01:05:41;11.00;99.90
1359;DHT22;673;48.098;14.422;2022-09-09T01:08:25;11.10;99.90
1359;DHT22;673;48.098;14.422;2022-09-09T01:10:58;11.10;99.90
1359;DHT22;673;48.098;14.422;2022-09-09T01:13:30;11.10;99.90
1359;DHT22;673;48.098;14.422;2022-09-09T01:16:01;11.00;99.90
1359;DHT22;673;48.098;14.422;2022-09-09T01:18:31;11.10;99.90
1359;DHT22;673;48.098;14.422;2022-09-09T01:21:07;11.10;99.90
1359;DHT22;673;48.098;14.422;2022-09-09T01:23:47;11.10;99.90
1359;DHT22;673;48.098;14.422;2022-09-09T01:26:22;11.10;99.90
1359;DHT22;673;48.098;14.422;2022-09-09T01:28:52;11.00;99.90
1359;DHT22;673;48.098;14.422;2022-09-09T01:31:21;10.90;99.90
1359;DHT22;673;48.098;14.422;2022-09-09T01:33:49;10.90;99.90
1359;DHT22;673;48.098;14.422;2022-09-09T01:36:23;11.00;99.90
1359;DHT22;673;48.098;14.422;2022-09-09T01:38:51;10.90;99.90
1359;DHT22;673;48.098;14.422;2022-09-09T01:41:20;10.80;99.90
1359;DHT22;673;48.098;14.422;2022-09-09T01:43:48;10.80;99.90
1359;DHT22;673;48.098;14.422;2022-09-09T01:46:16;10.80;99.90
1359;DHT22;673;48.098;14.422;2022-09-09T01:48:43;10.80;99.90
1359;DHT22;673;48.098;14.422;2022-09-09T01:51:12;10.80;99.90
1359;DHT22;673;48.098;14.422;2022-09-09T01:53:39;10.80;99.90
1359;DHT22;673;48.098;14.422;2022-09-09T01:56:14;10.80;99.90
1359;DHT22;673;48.098;14.422;2022-09-09T01:58:57;10.80;99.90
1359;DHT22;673;48.098;14.422;2022-09-09T02:01:34;10.80;99.90
1359;DHT22;673;48.098;14.422;2022-09-09T02:04:08;10.90;99.90
1359;DHT22;673;48.098;14.422;2022-09-09T02:06:40;10.90;99.90
1359;DHT22;673;48.098;14.422;2022-09-09T02:09:11;10.90;99.90
1359;DHT22;673;48.098;14.422;2022-09-09T02:11:40;11.00;99.90
1359;DHT22;673;48.098;14.422;2022-09-09T02:14:14;10.90;99.90
1359;DHT22;673;48.098;14.422;2022-09-09T02:16:46;10.90;99.90
1359;DHT22;673;48.098;14.422;2022-09-09T02:19:17;10.90;99.90
1359;DHT22;673;48.098;14.422;2022-09-09T02:21:50;10.90;99.90
1359;DHT22;673;48.098;14.422;2022-09-09T02:24:17;10.90;99.90
1359;DHT22;673;48.098;14.422;2022-09-09T02:26:46;10.90;99.90
1359;DHT22;673;48.098;14.422;2022-09-09T02:29:19;10.80;99.90
1359;DHT22;673;48.098;14.422;2022-09-09T02:31:47;10.80;99.90
1359;DHT22;673;48.098;14.422;2022-09-09T02:34:17;10.80;99.90
1359;DHT22;673;48.098;14.422;2022-09-09T02:36:46;10.80;99.90
1359;DHT22;673;48.098;14.422;2022-09-09T02:39:13;10.80;99.90
1359;DHT22;673;48.098;14.422;2022-09-09T02:41:42;10.80;99.90
1359;DHT22;673;48.098;14.422;2022-09-09T02:44:10;10.70;99.90
1359;DHT22;673;48.098;14.422;2022-09-09T02:46:58;10.60;99.90
1359;DHT22;673;48.098;14.422;2022-09-09T02:49:34;10.50;99.90
1359;DHT22;673;48.098;14.422;2022-09-09T02:52:06;10.50;99.90
1359;DHT22;673;48.098;14.422;2022-09-09T02:54:34;10.50;99.90
1359;DHT22;673;48.098;14.422;2022-09-09T02:57:05;10.40;99.90
1359;DHT22;673;48.098;14.422;2022-09-09T02:59:33;10.30;99.90
1359;DHT22;673;48.098;14.422;2022-09-09T03:02:02;10.30;99.90
1359;DHT22;673;48.098;14.422;2022-09-09T03:04:29;10.30;99.90
1359;DHT22;673;48.098;14.422;2022-09-09T03:06:56;10.30;99.90
1359;DHT22;673;48.098;14.422;2022-09-09T03:09:24;10.30;99.90
1359;DHT22;673;48.098;14.422;2022-09-09T03:11:51;10.40;99.90
1359;DHT22;673;48.098;14.422;2022-09-09T03:14:20;10.40;99.90
1359;DHT22;673;48.098;14.422;2022-09-09T03:16:50;10.40;99.90
1359;DHT22;673;48.098;14.422;2022-09-09T03:19:18;10.40;99.90
1359;DHT22;673;48.098;14.422;2022-09-09T03:21:45;10.40;99.90
1359;DHT22;673;48.098;14.422;2022-09-09T03:24:12;10.30;99.90
1359;DHT22;673;48.098;14.422;2022-09-09T03:26:39;10.30;99.90
1359;DHT22;673;48.098;14.422;2022-09-09T03:29:07;10.40;99.90
1359;DHT22;673;48.098;14.422;2022-09-09T03:31:34;10.40;99.90
1359;DHT22;673;48.098;14.422;2022-09-09T03:34:01;10.40;99.90
1359;DHT22;673;48.098;14.422;2022-09-09T03:36:30;10.40;99.90
1359;DHT22;673;48.098;14.422;2022-09-09T03:38:58;10.40;99.90
1359;DHT22;673;48.098;14.422;2022-09-09T03:41:26;10.40;99.90
1359;DHT22;673;48.098;14.422;2022-09-09T03:43:54;10.40;99.90
1359;DHT22;673;48.098;14.422;2022-09-09T03:46:22;10.40;99.90
1359;DHT22;673;48.098;14.422;2022-09-09T03:48:49;10.40;99.90
1359;DHT22;673;48.098;14.422;2022-09-09T03:51:17;10.40;99.90
1359;DHT22;673;48.098;14.422;2022-09-09T03:53:46;10.50;99.90
1359;DHT22;673;48.098;14.422;2022-09-09T03:56:13;10.50;99.90
1359;DHT22;673;48.098;14.422;2022-09-09T03:58:40;10.50;99.90
1359;DHT22;673;48.098;14.422;2022-09-09T04:01:09;10.50;99.90
1359;DHT22;673;48.098;14.422;2022-09-09T04:03:38;10.60;99.90
1359;DHT22;673;48.098;14.422;2022-09-09T04:06:07;10.50;99.90
1359;DHT22;673;48.098;14.422;2022-09-09T04:08:35;10.40;99.90
1359;DHT22;673;48.098;14.422;2022-09-09T04:11:05;10.40;99.90
1359;DHT22;673;48.098;14.422;2022-09-09T04:13:33;10.30;99.90
1359;DHT22;673;48.098;14.422;2022-09-09T04:16:02;10.30;99.90
1359;DHT22;673;48.098;14.422;2022-09-09T04:18:30;10.30;99.90
1359;DHT22;673;48.098;14.422;2022-09-09T04:20:57;10.40;99.90
1359;DHT22;673;48.098;14.422;2022-09-09T04:23:25;10.40;99.90
1359;DHT22;673;48.098;14.422;2022-09-09T04:25:55;10.40;99.90
1359;DHT22;673;48.098;14.422;2022-09-09T04:28:26;10.40;99.90
1359;DHT22;673;48.098;14.422;2022-09-09T04:30:53;10.40;99.90
1359;DHT22;673;48.098;14.422;2022-09-09T04:33:21;10.40;99.90
1359;DHT22;673;48.098;14.422;2022-09-09T04:35:49;10.50;99.90
1359;DHT22;673;48.098;14.422;2022-09-09T04:38:19;10.50;99.90
1359;DHT22;673;48.098;14.422;2022-09-09T04:40:49;10.50;99.90
1359;DHT22;673;48.098;14.422;2022-09-09T04:43:17;10.60;99.90
1359;DHT22;673;48.098;14.422;2022-09-09T04:45:47;10.60;99.90
1359;DHT22;673;48.098;14.422;2022-09-09T04:48:15;10.70;99.90
1359;DHT22;673;48.098;14.422;2022-09-09T04:50:42;10.80;99.90
1359;DHT22;673;48.098;14.422;2022-09-09T04:53:09;10.90;99.90
1359;DHT22;673;48.098;14.422;2022-09-09T04:55:36;11.10;99.90
1359;DHT22;673;48.098;14.422;2022-09-09T04:58:04;11.30;99.90
1359;DHT22;673;48.098;14.422;2022-09-09T05:00:31;11.40;99.90
1359;DHT22;673;48.098;14.422;2022-09-09T05:03:02;11.60;99.90
1359;DHT22;673;48.098;14.422;2022-09-09T05:05:29;11.60;99.90
1359;DHT22;673;48.098;14.422;2022-09-09T05:08:01;11.70;99.90
1359;DHT22;673;48.098;14.422;2022-09-09T05:10:28;11.70;99.90
1359;DHT22;673;48.098;14.422;2022-09-09T05:12:55;11.80;99.90
1359;DHT22;673;48.098;14.422;2022-09-09T05:15:22;12.00;99.90
1359;DHT22;673;48.098;14.422;2022-09-09T05:17:49;12.00;99.90
1359;DHT22;673;48.098;14.422;2022-09-09T05:20:19;12.10;99.90
1359;DHT22;673;48.098;14.422;2022-09-09T05:22:47;12.20;99.90
1359;DHT22;673;48.098;14.422;2022-09-09T05:25:15;12.30;99.90
1359;DHT22;673;48.098;14.422;2022-09-09T05:27:42;12.30;99.90
1359;DHT22;673;48.098;14.422;2022-09-09T05:30:09;12.40;99.90
1359;DHT22;673;48.098;14.422;2022-09-09T05:32:37;12.50;99.90
1359;DHT22;673;48.098;14.422;2022-09-09T05:35:04;12.70;99.90
1359;DHT22;673;48.098;14.422;2022-09-09T05:37:33;12.90;99.90
1359;DHT22;673;48.098;14.422;2022-09-09T05:40:00;12.90;99.90
1359;DHT22;673;48.098;14.422;2022-09-09T05:42:30;12.70;99.90
1359;DHT22;673;48.098;14.422;2022-09-09T05:44:58;12.80;99.90
1359;DHT22;673;48.098;14.422;2022-09-09T05:47:25;12.80;99.90
1359;DHT22;673;48.098;14.422;2022-09-09T05:49:53;12.90;99.90
1359;DHT22;673;48.098;14.422;2022-09-09T05:52:21;12.80;99.90
1359;DHT22;673;48.098;14.422;2022-09-09T05:54:49;12.90;99.90
1359;DHT22;673;48.098;14.422;2022-09-09T05:57:16;12.90;99.90
1359;DHT22;673;48.098;14.422;2022-09-09T05:59:45;12.80;99.90
1359;DHT22;673;48.098;14.422;2022-09-09T06:02:12;12.80;99.90
1359;DHT22;673;48.098;14.422;2022-09-09T06:04:39;12.90;99.90
1359;DHT22;673;48.098;14.422;2022-09-09T06:07:06;12.90;99.90
1359;DHT22;673;48.098;14.422;2022-09-09T06:09:33;13.10;99.90
1359;DHT22;673;48.098;14.422;2022-09-09T06:12:01;13.30;99.90
1359;DHT22;673;48.098;14.422;2022-09-09T06:14:28;13.50;99.90
1359;DHT22;673;48.098;14.422;2022-09-09T06:16:55;13.50;99.90
1359;DHT22;673;48.098;14.422;2022-09-09T06:19:22;13.60;99.90
1359;DHT22;673;48.098;14.422;2022-09-09T06:21:52;13.60;99.90
1359;DHT22;673;48.098;14.422;2022-09-09T06:24:20;13.50;99.90
1359;DHT22;673;48.098;14.422;2022-09-09T06:26:47;13.60;99.90
1359;DHT22;673;48.098;14.422;2022-09-09T06:29:16;13.60;99.90
1359;DHT22;673;48.098;14.422;2022-09-09T06:31:43;13.60;99.90
1359;DHT22;673;48.098;14.422;2022-09-09T06:34:10;13.80;99.90
1359;DHT22;673;48.098;14.422;2022-09-09T06:36:38;13.70;99.90
1359;DHT22;673;48.098;14.422;2022-09-09T06:39:06;13.80;99.90
1359;DHT22;673;48.098;14.422;2022-09-09T06:41:34;13.80;99.90
1359;DHT22;673;48.098;14.422;2022-09-09T06:44:02;13.80;99.90
1359;DHT22;673;48.098;14.422;2022-09-09T06:46:31;13.60;99.90
1359;DHT22;673;48.098;14.422;2022-09-09T06:48:59;13.70;99.90
1359;DHT22;673;48.098;14.422;2022-09-09T06:51:27;13.90;99.90
1359;DHT22;673;48.098;14.422;2022-09-09T06:53:56;13.90;99.90
1359;DHT22;673;48.098;14.422;2022-09-09T06:56:25;14.10;99.90
1359;DHT22;673;48.098;14.422;2022-09-09T06:58:54;13.90;99.90
1359;DHT22;673;48.098;14.422;2022-09-09T07:01:22;13.90;99.90
1359;DHT22;673;48.098;14.422;2022-09-09T07:03:52;14.00;99.90
1359;DHT22;673;48.098;14.422;2022-09-09T07:06:21;14.00;99.90
1359;DHT22;673;48.098;14.422;2022-09-09T07:08:50;14.20;99.90
1359;DHT22;673;48.098;14.422;2022-09-09T07:11:19;14.30;99.90
1359;DHT22;673;48.098;14.422;2022-09-09T07:13:46;14.50;99.90
1359;DHT22;673;48.098;14.422;2022-09-09T07:16:16;14.50;99.90
1359;DHT22;673;48.098;14.422;2022-09-09T07:18:43;14.60;99.90
1359;DHT22;673;48.098;14.422;2022-09-09T07:21:13;14.80;99.90
1359;DHT22;673;48.098;14.422;2022-09-09T07:23:41;14.80;99.90
1359;DHT22;673;48.098;14.422;2022-09-09T07:26:09;14.60;99.90
1359;DHT22;673;48.098;14.422;2022-09-09T07:28:36;14.90;99.90
1359;DHT22;673;48.098;14.422;2022-09-09T07:31:05;15.00;99.90
1359;DHT22;673;48.098;14.422;2022-09-09T07:33:33;14.60;99.90
1359;DHT22;673;48.098;14.422;2022-09-09T07:36:05;14.50;99.90
1359;DHT22;673;48.098;14.422;2022-09-09T07:38:37;14.40;99.90
1359;DHT22;673;48.098;14.422;2022-09-09T07:41:06;14.30;99.90
1359;DHT22;673;48.098;14.422;2022-09-09T07:43:34;14.40;99.90
1359;DHT22;673;48.098;14.422;2022-09-09T07:46:01;14.50;99.90
1359;DHT22;673;48.098;14.422;2022-09-09T07:48:28;14.60;99.90
1359;DHT22;673;48.098;14.422;2022-09-09T07:51:04;14.70;99.90
1359;DHT22;673;48.098;14.422;2022-09-09T07:53:32;14.60;99.90
1359;DHT22;673;48.098;14.422;2022-09-09T07:56:04;14.70;99.90
1359;DHT22;673;48.098;14.422;2022-09-09T07:58:31;14.80;99.90
1359;DHT22;673;48.098;14.422;2022-09-09T08:00:58;15.00;99.90
1359;DHT22;673;48.098;14.422;2022-09-09T08:03:25;15.10;99.90
1359;DHT22;673;48.098;14.422;2022-09-09T08:05:52;15.20;99.90
1359;DHT22;673;48.098;14.422;2022-09-09T08:08:19;15.30;99.90
1359;DHT22;673;48.098;14.422;2022-09-09T08:10:46;15.40;99.90
1359;DHT22;673;48.098;14.422;2022-09-09T08:13:15;15.50;99.90
1359;DHT22;673;48.098;14.422;2022-09-09T08:15:43;15.60;99.90
1359;DHT22;673;48.098;14.422;2022-09-09T08:18:11;15.50;99.90
1359;DHT22;673;48.098;14.422;2022-09-09T08:20:38;15.60;99.90
1359;DHT22;673;48.098;14.422;2022-09-09T08:23:05;15.40;99.90
1359;DHT22;673;48.098;14.422;2022-09-09T08:25:33;15.40;99.90
1359;DHT22;673;48.098;14.422;2022-09-09T08:28:00;15.50;99.90
1359;DHT22;673;48.098;14.422;2022-09-09T08:30:30;15.30;99.90
1359;DHT22;673;48.098;14.422;2022-09-09T08:32:57;15.20;99.90
1359;DHT22;673;48.098;14.422;2022-09-09T08:35:25;15.10;99.90
1359;DHT22;673;48.098;14.422;2022-09-09T08:37:54;15.20;99.90
1359;DHT22;673;48.098;14.422;2022-09-09T08:40:28;15.20;99.90
1359;DHT22;673;48.098;14.422;2022-09-09T08:42:56;15.30;99.90
1359;DHT22;673;48.098;14.422;2022-09-09T08:45:31;15.30;99.90
1359;DHT22;673;48.098;14.422;2022-09-09T08:48:10;15.40;99.90
1359;DHT22;673;48.098;14.422;2022-09-09T08:50:40;15.40;99.90
1359;DHT22;673;48.098;14.422;2022-09-09T08:53:13;15.40;99.90
1359;DHT22;673;48.098;14.422;2022-09-09T08:55:45;15.30;99.90
1359;DHT22;673;48.098;14.422;2022-09-09T08:58:16;15.20;99.90
1359;DHT22;673;48.098;14.422;2022-09-09T09:01:01;15.40;99.90
1359;DHT22;673;48.098;14.422;2022-09-09T09:03:38;15.30;99.90
1359;DHT22;673;48.098;14.422;2022-09-09T09:06:22;15.30;99.90
1359;DHT22;673;48.098;14.422;2022-09-09T09:09:01;15.30;99.90
1359;DHT22;673;48.098;14.422;2022-09-09T09:11:35;15.30;99.90
1359;DHT22;673;48.098;14.422;2022-09-09T09:14:05;15.30;99.90
1359;DHT22;673;48.098;14.422;2022-09-09T09:16:40;15.20;99.90
1359;DHT22;673;48.098;14.422;2022-09-09T09:19:14;15.20;99.90
1359;DHT22;673;48.098;14.422;2022-09-09T09:21:43;15.20;99.90
1359;DHT22;673;48.098;14.422;2022-09-09T09:24:18;15.00;99.90
1359;DHT22;673;48.098;14.422;2022-09-09T09:26:45;15.00;99.90
1359;DHT22;673;48.098;14.422;2022-09-09T09:29:14;15.00;99.90
1359;DHT22;673;48.098;14.422;2022-09-09T09:31:45;15.10;99.90
1359;DHT22;673;48.098;14.422;2022-09-09T09:34:13;15.10;99.90
1359;DHT22;673;48.098;14.422;2022-09-09T09:36:42;15.00;99.90
1359;DHT22;673;48.098;14.422;2022-09-09T09:39:23;15.10;99.90
1359;DHT22;673;48.098;14.422;2022-09-09T09:41:51;15.20;99.90
1359;DHT22;673;48.098;14.422;2022-09-09T09:44:24;15.20;99.90
1359;DHT22;673;48.098;14.422;2022-09-09T09:47:04;15.20;99.90
1359;DHT22;673;48.098;14.422;2022-09-09T09:49:32;15.30;99.90
1359;DHT22;673;48.098;14.422;2022-09-09T09:52:00;15.40;99.90
1359;DHT22;673;48.098;14.422;2022-09-09T09:54:30;15.60;99.90
1359;DHT22;673;48.098;14.422;2022-09-09T09:57:08;15.60;99.90
1359;DHT22;673;48.098;14.422;2022-09-09T09:59:36;15.80;99.90
1359;DHT22;673;48.098;14.422;2022-09-09T10:02:21;15.90;99.90
1359;DHT22;673;48.098;14.422;2022-09-09T10:05:01;16.00;99.90
1359;DHT22;673;48.098;14.422;2022-09-09T10:07:28;16.20;99.90
1359;DHT22;673;48.098;14.422;2022-09-09T10:09:56;16.20;99.90
1359;DHT22;673;48.098;14.422;2022-09-09T10:12:34;16.30;99.90
1359;DHT22;673;48.098;14.422;2022-09-09T10:15:21;16.30;99.90
1359;DHT22;673;48.098;14.422;2022-09-09T10:17:56;16.30;99.90
1359;DHT22;673;48.098;14.422;2022-09-09T10:20:34;16.60;99.90
1359;DHT22;673;48.098;14.422;2022-09-09T10:23:11;16.80;99.90
1359;DHT22;673;48.098;14.422;2022-09-09T10:25:54;17.00;99.90
1359;DHT22;673;48.098;14.422;2022-09-09T10:28:37;17.30;99.90
1359;DHT22;673;48.098;14.422;2022-09-09T10:31:16;17.60;99.90
1359;DHT22;673;48.098;14.422;2022-09-09T10:33:51;17.80;99.90
1359;DHT22;673;48.098;14.422;2022-09-09T10:36:21;18.10;99.90
1359;DHT22;673;48.098;14.422;2022-09-09T10:38:53;18.20;99.90
1359;DHT22;673;48.098;14.422;2022-09-09T10:41:33;18.20;99.90
1359;DHT22;673;48.098;14.422;2022-09-09T10:44:18;18.20;99.90
1359;DHT22;673;48.098;14.422;2022-09-09T10:47:21;18.20;99.90
1359;DHT22;673;48.098;14.422;2022-09-09T10:52:59;18.00;99.90
1359;DHT22;673;48.098;14.422;2022-09-09T10:59:02;18.00;99.90
1359;DHT22;673;48.098;14.422;2022-09-09T11:01:39;17.90;99.90
1359;DHT22;673;48.098;14.422;2022-09-09T11:04:15;17.80;99.90
1359;DHT22;673;48.098;14.422;2022-09-09T11:06:50;17.80;99.90
1359;DHT22;673;48.098;14.422;2022-09-09T11:09:22;18.30;99.90
1359;DHT22;673;48.098;14.422;2022-09-09T11:11:53;18.70;99.90
1359;DHT22;673;48.098;14.422;2022-09-09T11:14:26;18.90;99.90
1359;DHT22;673;48.098;14.422;2022-09-09T11:16:58;19.10;99.90
1359;DHT22;673;48.098;14.422;2022-09-09T11:19:30;19.00;99.90
1359;DHT22;673;48.098;14.422;2022-09-09T11:22:06;19.10;99.90
1359;DHT22;673;48.098;14.422;2022-09-09T11:24:37;19.00;99.90
1359;DHT22;673;48.098;14.422;2022-09-09T11:27:10;19.30;99.90
1359;DHT22;673;48.098;14.422;2022-09-09T11:32:47;19.20;99.90
1359;DHT22;673;48.098;14.422;2022-09-09T11:35:29;19.80;99.90
1359;DHT22;673;48.098;14.422;2022-09-09T11:38:16;19.60;99.90
1359;DHT22;673;48.098;14.422;2022-09-09T11:40:46;19.50;99.90
1359;DHT22;673;48.098;14.422;2022-09-09T11:43:15;19.30;99.90
1359;DHT22;673;48.098;14.422;2022-09-09T11:45:51;19.20;99.90
1359;DHT22;673;48.098;14.422;2022-09-09T11:48:28;19.00;99.90
1359;DHT22;673;48.098;14.422;2022-09-09T11:51:02;19.00;99.90
1359;DHT22;673;48.098;14.422;2022-09-09T11:53:32;19.00;99.90
1359;DHT22;673;48.098;14.422;2022-09-09T11:56:02;18.70;99.90
1359;DHT22;673;48.098;14.422;2022-09-09T11:58:37;18.60;99.90
1359;DHT22;673;48.098;14.422;2022-09-09T12:01:26;18.60;99.90
1359;DHT22;673;48.098;14.422;2022-09-09T12:04:12;18.40;99.90
1359;DHT22;673;48.098;14.422;2022-09-09T12:06:45;18.40;99.90
1359;DHT22;673;48.098;14.422;2022-09-09T12:09:23;18.40;99.90
1359;DHT22;673;48.098;14.422;2022-09-09T12:11:52;18.40;99.90
1359;DHT22;673;48.098;14.422;2022-09-09T12:14:34;18.40;99.90
1359;DHT22;673;48.098;14.422;2022-09-09T12:17:10;18.60;99.90
1359;DHT22;673;48.098;14.422;2022-09-09T12:19:44;18.70;99.90
1359;DHT22;673;48.098;14.422;2022-09-09T12:22:18;18.60;99.90
1359;DHT22;673;48.098;14.422;2022-09-09T12:24:57;18.40;99.90
1359;DHT22;673;48.098;14.422;2022-09-09T12:27:31;18.40;99.90
1359;DHT22;673;48.098;14.422;2022-09-09T12:30:07;18.50;99.90
1359;DHT22;673;48.098;14.422;2022-09-09T12:32:36;18.40;99.90
1359;DHT22;673;48.098;14.422;2022-09-09T12:35:10;18.20;99.90
1359;DHT22;673;48.098;14.422;2022-09-09T12:37:44;18.30;99.90
1359;DHT22;673;48.098;14.422;2022-09-09T12:40:23;18.30;99.90
1359;DHT22;673;48.098;14.422;2022-09-09T12:42:51;18.20;99.90
1359;DHT22;673;48.098;14.422;2022-09-09T12:45:19;18.10;99.90
1359;DHT22;673;48.098;14.422;2022-09-09T12:47:52;17.90;99.90
1359;DHT22;673;48.098;14.422;2022-09-09T12:50:25;17.70;99.90
1359;DHT22;673;48.098;14.422;2022-09-09T12:52:59;17.50;99.90
1359;DHT22;673;48.098;14.422;2022-09-09T12:55:32;17.40;99.90
1359;DHT22;673;48.098;14.422;2022-09-09T12:58:02;17.20;99.90
1359;DHT22;673;48.098;14.422;2022-09-09T13:00:32;17.10;99.90
1359;DHT22;673;48.098;14.422;2022-09-09T13:03:01;17.20;99.90
1359;DHT22;673;48.098;14.422;2022-09-09T13:05:35;17.10;99.90
1359;DHT22;673;48.098;14.422;2022-09-09T13:08:04;17.00;99.90
1359;DHT22;673;48.098;14.422;2022-09-09T13:10:35;16.90;99.90
1359;DHT22;673;48.098;14.422;2022-09-09T13:13:04;16.90;99.90
1359;DHT22;673;48.098;14.422;2022-09-09T13:15:32;16.90;99.90
1359;DHT22;673;48.098;14.422;2022-09-09T13:18:04;16.80;99.90
1359;DHT22;673;48.098;14.422;2022-09-09T13:20:33;16.70;99.90
1359;DHT22;673;48.098;14.422;2022-09-09T13:23:00;16.60;99.90
1359;DHT22;673;48.098;14.422;2022-09-09T13:25:28;16.60;99.90
1359;DHT22;673;48.098;14.422;2022-09-09T13:27:59;16.60;99.90
1359;DHT22;673;48.098;14.422;2022-09-09T13:30:28;16.70;99.90
1359;DHT22;673;48.098;14.422;2022-09-09T13:33:05;16.80;99.90
1359;DHT22;673;48.098;14.422;2022-09-09T13:35:33;16.80;99.90
1359;DHT22;673;48.098;14.422;2022-09-09T13:38:07;16.80;99.90
1359;DHT22;673;48.098;14.422;2022-09-09T13:40:35;16.90;99.90
1359;DHT22;673;48.098;14.422;2022-09-09T13:43:03;16.90;99.90
1359;DHT22;673;48.098;14.422;2022-09-09T13:45:31;16.90;99.90
1359;DHT22;673;48.098;14.422;2022-09-09T13:48:09;16.80;99.90
1359;DHT22;673;48.098;14.422;2022-09-09T13:50:39;16.80;99.90
1359;DHT22;673;48.098;14.422;2022-09-09T13:53:07;16.80;99.90
1359;DHT22;673;48.098;14.422;2022-09-09T13:55:36;16.70;99.90
1359;DHT22;673;48.098;14.422;2022-09-09T13:58:05;16.60;99.90
1359;DHT22;673;48.098;14.422;2022-09-09T14:00:34;16.50;99.90
1359;DHT22;673;48.098;14.422;2022-09-09T14:03:01;16.40;99.90
1359;DHT22;673;48.098;14.422;2022-09-09T14:05:30;16.40;99.90
1359;DHT22;673;48.098;14.422;2022-09-09T14:07:58;16.50;99.90
1359;DHT22;673;48.098;14.422;2022-09-09T14:10:26;16.40;99.90
1359;DHT22;673;48.098;14.422;2022-09-09T14:12:53;16.40;99.90
1359;DHT22;673;48.098;14.422;2022-09-09T14:15:21;16.40;99.90
1359;DHT22;673;48.098;14.422;2022-09-09T14:17:48;16.40;99.90
1359;DHT22;673;48.098;14.422;2022-09-09T14:20:17;16.50;99.90
1359;DHT22;673;48.098;14.422;2022-09-09T14:22:45;16.30;99.90
1359;DHT22;673;48.098;14.422;2022-09-09T14:25:12;16.30;99.90
1359;DHT22;673;48.098;14.422;2022-09-09T14:27:39;16.20;99.90
1359;DHT22;673;48.098;14.422;2022-09-09T14:30:08;16.10;99.90
1359;DHT22;673;48.098;14.422;2022-09-09T14:32:37;16.10;99.90
1359;DHT22;673;48.098;14.422;2022-09-09T14:35:04;16.20;99.90
1359;DHT22;673;48.098;14.422;2022-09-09T14:37:32;16.20;99.90
1359;DHT22;673;48.098;14.422;2022-09-09T14:39:59;16.20;99.90
1359;DHT22;673;48.098;14.422;2022-09-09T14:42:26;16.20;99.90
1359;DHT22;673;48.098;14.422;2022-09-09T14:44:55;16.10;99.90
1359;DHT22;673;48.098;14.422;2022-09-09T14:47:22;16.10;99.90
1359;DHT22;673;48.098;14.422;2022-09-09T14:49:51;16.10;99.90
1359;DHT22;673;48.098;14.422;2022-09-09T14:52:18;16.20;99.90
1359;DHT22;673;48.098;14.422;2022-09-09T14:54:45;16.10;99.90
1359;DHT22;673;48.098;14.422;2022-09-09T14:57:12;16.00;99.90
1359;DHT22;673;48.098;14.422;2022-09-09T14:59:39;16.10;99.90
1359;DHT22;673;48.098;14.422;2022-09-09T15:02:07;16.00;99.90
1359;DHT22;673;48.098;14.422;2022-09-09T15:04:35;15.90;99.90
1359;DHT22;673;48.098;14.422;2022-09-09T15:07:03;15.90;99.90
1359;DHT22;673;48.098;14.422;2022-09-09T15:09:30;15.90;99.90
1359;DHT22;673;48.098;14.422;2022-09-09T15:11:57;15.90;99.90
1359;DHT22;673;48.098;14.422;2022-09-09T15:14:24;15.90;99.90
1359;DHT22;673;48.098;14.422;2022-09-09T15:16:52;15.90;99.90
1359;DHT22;673;48.098;14.422;2022-09-09T15:19:18;15.90;99.90
1359;DHT22;673;48.098;14.422;2022-09-09T15:21:45;16.00;99.90
1359;DHT22;673;48.098;14.422;2022-09-09T15:24:14;16.00;99.90
1359;DHT22;673;48.098;14.422;2022-09-09T15:26:41;16.00;99.90
1359;DHT22;673;48.098;14.422;2022-09-09T15:29:09;16.00;99.90
1359;DHT22;673;48.098;14.422;2022-09-09T15:31:36;16.10;99.90
1359;DHT22;673;48.098;14.422;2022-09-09T15:34:05;16.00;99.90
1359;DHT22;673;48.098;14.422;2022-09-09T15:36:33;16.00;99.90
1359;DHT22;673;48.098;14.422;2022-09-09T15:39:02;16.00;99.90
1359;DHT22;673;48.098;14.422;2022-09-09T15:41:31;16.00;99.90
1359;DHT22;673;48.098;14.422;2022-09-09T15:43:58;15.90;99.90
1359;DHT22;673;48.098;14.422;2022-09-09T15:46:29;15.80;99.90
1359;DHT22;673;48.098;14.422;2022-09-09T15:48:58;15.80;99.90
1359;DHT22;673;48.098;14.422;2022-09-09T15:51:29;15.90;99.90
1359;DHT22;673;48.098;14.422;2022-09-09T15:53:57;15.80;99.90
1359;DHT22;673;48.098;14.422;2022-09-09T15:56:25;15.70;99.90
1359;DHT22;673;48.098;14.422;2022-09-09T15:58:55;15.70;99.90
1359;DHT22;673;48.098;14.422;2022-09-09T16:01:23;15.70;99.90
1359;DHT22;673;48.098;14.422;2022-09-09T16:03:50;15.70;99.90
1359;DHT22;673;48.098;14.422;2022-09-09T16:06:20;15.70;99.90
1359;DHT22;673;48.098;14.422;2022-09-09T16:08:49;15.60;99.90
1359;DHT22;673;48.098;14.422;2022-09-09T16:11:20;15.60;99.90
1359;DHT22;673;48.098;14.422;2022-09-09T16:13:49;15.60;99.90
1359;DHT22;673;48.098;14.422;2022-09-09T16:16:20;15.50;99.90
1359;DHT22;673;48.098;14.422;2022-09-09T16:18:49;15.60;99.90
1359;DHT22;673;48.098;14.422;2022-09-09T16:21:18;15.50;99.90
1359;DHT22;673;48.098;14.422;2022-09-09T16:23:46;15.50;99.90
1359;DHT22;673;48.098;14.422;2022-09-09T16:26:16;15.50;99.90
1359;DHT22;673;48.098;14.422;2022-09-09T16:28:43;15.50;99.90
1359;DHT22;673;48.098;14.422;2022-09-09T16:31:15;15.60;99.90
1359;DHT22;673;48.098;14.422;2022-09-09T16:33:44;15.60;99.90
1359;DHT22;673;48.098;14.422;2022-09-09T16:36:13;15.80;99.90